sensor_id;sensor_type;location;lat;lon;timestamp;pressure;altitude;pressure_sealevel;temperature;humidity
49827;BME280;35715;51.570;6.036;2023-02-11T00:00:40;103314.91;;;7.90;81.92
49827;BME280;35715;51.570;6.036;2023-02-11T00:03:06;103311.03;;;7.94;81.23
49827;BME280;35715;51.570;6.036;2023-02-11T00:05:31;103313.41;;;7.92;81.76
49827;BME280;35715;51.570;6.036;2023-02-11T00:07:56;103312.13;;;7.96;81.42
49827;BME280;35715;51.570;6.036;2023-02-11T00:10:21;103310.47;;;7.96;81.42
49827;BME280;35715;51.570;6.036;2023-02-11T00:12:47;103316.72;;;7.98;81.22
49827;BME280;35715;51.570;6.036;2023-02-11T00:15:12;103316.00;;;7.99;80.99
49827;BME280;35715;51.570;6.036;2023-02-11T00:17:40;103313.59;;;7.94;81.56
49827;BME280;35715;51.570;6.036;2023-02-11T00:20:06;103305.34;;;7.96;81.20
49827;BME280;35715;51.570;6.036;2023-02-11T00:22:31;103300.22;;;7.96;81.37
49827;BME280;35715;51.570;6.036;2023-02-11T00:24:56;103306.63;;;7.93;81.68
49827;BME280;35715;51.570;6.036;2023-02-11T00:27:26;103298.53;;;7.97;81.22
49827;BME280;35715;51.570;6.036;2023-02-11T00:29:51;103306.25;;;7.97;81.38
49827;BME280;35715;51.570;6.036;2023-02-11T00:32:16;103294.66;;;8.00;80.88
49827;BME280;35715;51.570;6.036;2023-02-11T00:34:41;103296.31;;;8.00;81.14
49827;BME280;35715;51.570;6.036;2023-02-11T00:37:09;103290.09;;;7.91;81.77
49827;BME280;35715;51.570;6.036;2023-02-11T00:39:36;103291.38;;;7.94;81.74
49827;BME280;35715;51.570;6.036;2023-02-11T00:42:01;103287.16;;;7.95;81.71
49827;BME280;35715;51.570;6.036;2023-02-11T00:44:26;103289.56;;;7.93;81.81
49827;BME280;35715;51.570;6.036;2023-02-11T00:46:53;103290.28;;;7.92;81.98
49827;BME280;35715;51.570;6.036;2023-02-11T00:49:19;103289.75;;;7.95;81.64
49827;BME280;35715;51.570;6.036;2023-02-11T00:51:44;103295.06;;;7.96;81.32
49827;BME280;35715;51.570;6.036;2023-02-11T00:54:09;103301.66;;;7.94;81.54
49827;BME280;35715;51.570;6.036;2023-02-11T00:59:04;103291.38;;;7.87;81.86
49827;BME280;35715;51.570;6.036;2023-02-11T01:01:29;103294.69;;;7.93;81.31
49827;BME280;35715;51.570;6.036;2023-02-11T01:03:54;103287.16;;;7.95;81.29
49827;BME280;35715;51.570;6.036;2023-02-11T01:06:20;103293.03;;;7.94;81.40
49827;BME280;35715;51.570;6.036;2023-02-11T01:08:45;103293.94;;;7.94;81.45
49827;BME280;35715;51.570;6.036;2023-02-11T01:11:11;103287.72;;;7.99;80.94
49827;BME280;35715;51.570;6.036;2023-02-11T01:13:37;103294.69;;;7.93;81.57
49827;BME280;35715;51.570;6.036;2023-02-11T01:16:05;103288.63;;;7.93;81.50
49827;BME280;35715;51.570;6.036;2023-02-11T01:18:31;103299.66;;;7.92;81.37
49827;BME280;35715;51.570;6.036;2023-02-11T01:20:56;103297.63;;;7.89;81.55
49827;BME280;35715;51.570;6.036;2023-02-11T01:23:21;103302.59;;;7.88;81.59
49827;BME280;35715;51.570;6.036;2023-02-11T01:25:47;103294.34;;;7.90;81.27
49827;BME280;35715;51.570;6.036;2023-02-11T01:28:19;103307.91;;;7.89;81.62
49827;BME280;35715;51.570;6.036;2023-02-11T01:30:45;103315.25;;;7.93;81.31
49827;BME280;35715;51.570;6.036;2023-02-11T01:33:10;103312.28;;;7.97;80.72
49827;BME280;35715;51.570;6.036;2023-02-11T01:35:37;103309.19;;;7.93;81.30
49827;BME280;35715;51.570;6.036;2023-02-11T01:38:03;103298.00;;;7.92;81.32
49827;BME280;35715;51.570;6.036;2023-02-11T01:40:28;103296.16;;;7.91;81.32
49827;BME280;35715;51.570;6.036;2023-02-11T01:42:53;103292.84;;;7.92;81.28
49827;BME280;35715;51.570;6.036;2023-02-11T01:48:04;103258.72;;;7.93;81.34
49827;BME280;35715;51.570;6.036;2023-02-11T01:50:30;103250.25;;;7.87;81.65
49827;BME280;35715;51.570;6.036;2023-02-11T01:52:55;103248.25;;;7.92;80.65
49827;BME280;35715;51.570;6.036;2023-02-11T01:58:28;103260.72;;;7.89;81.09
49827;BME280;35715;51.570;6.036;2023-02-11T02:00:55;103262.56;;;7.90;81.13
49827;BME280;35715;51.570;6.036;2023-02-11T02:03:20;103264.41;;;7.84;81.50
49827;BME280;35715;51.570;6.036;2023-02-11T02:08:20;103267.16;;;7.85;81.40
49827;BME280;35715;51.570;6.036;2023-02-11T02:10:47;103270.44;;;7.84;81.23
49827;BME280;35715;51.570;6.036;2023-02-11T02:13:13;103287.91;;;7.87;81.04
49827;BME280;35715;51.570;6.036;2023-02-11T02:15:40;103287.00;;;7.86;81.04
49827;BME280;35715;51.570;6.036;2023-02-11T02:20:51;103283.53;;;7.78;81.80
49827;BME280;35715;51.570;6.036;2023-02-11T02:33:54;103250.84;;;7.70;82.18
49827;BME280;35715;51.570;6.036;2023-02-11T02:39:27;103248.63;;;7.73;82.14
49827;BME280;35715;51.570;6.036;2023-02-11T02:41:55;103250.84;;;7.70;82.14
49827;BME280;35715;51.570;6.036;2023-02-11T02:44:21;103263.50;;;7.69;82.43
49827;BME280;35715;51.570;6.036;2023-02-11T02:46:46;103247.00;;;7.74;81.91
49827;BME280;35715;51.570;6.036;2023-02-11T02:49:12;103243.72;;;7.68;82.38
49827;BME280;35715;51.570;6.036;2023-02-11T02:56:35;103253.81;;;7.66;82.53
49827;BME280;35715;51.570;6.036;2023-02-11T02:59:09;103251.59;;;7.62;82.85
49827;BME280;35715;51.570;6.036;2023-02-11T03:09:36;103245.16;;;7.66;82.63
49827;BME280;35715;51.570;6.036;2023-02-11T03:12:04;103245.16;;;7.66;82.31
49827;BME280;35715;51.570;6.036;2023-02-11T03:14:30;103248.84;;;7.60;82.52
49827;BME280;35715;51.570;6.036;2023-02-11T03:16:56;103235.66;;;7.64;82.91
49827;BME280;35715;51.570;6.036;2023-02-11T03:19:28;103246.28;;;7.60;82.87
49827;BME280;35715;51.570;6.036;2023-02-11T03:21:54;103248.28;;;7.63;82.64
49827;BME280;35715;51.570;6.036;2023-02-11T03:24:27;103248.28;;;7.70;82.03
49827;BME280;35715;51.570;6.036;2023-02-11T03:26:59;103246.28;;;7.68;82.27
49827;BME280;35715;51.570;6.036;2023-02-11T03:40:14;103255.81;;;7.61;83.35
49827;BME280;35715;51.570;6.036;2023-02-11T03:42:51;103252.72;;;7.50;84.71
49827;BME280;35715;51.570;6.036;2023-02-11T03:45:18;103246.28;;;7.46;85.03
49827;BME280;35715;51.570;6.036;2023-02-11T03:47:46;103245.91;;;7.43;85.75
49827;BME280;35715;51.570;6.036;2023-02-11T03:50:13;103243.19;;;7.49;85.23
49827;BME280;35715;51.570;6.036;2023-02-11T03:52:39;103243.72;;;7.53;84.87
49827;BME280;35715;51.570;6.036;2023-02-11T03:55:08;103248.84;;;7.46;86.26
49827;BME280;35715;51.570;6.036;2023-02-11T04:00:05;103235.09;;;7.53;85.26
49827;BME280;35715;51.570;6.036;2023-02-11T04:02:33;103230.69;;;7.52;85.37
49827;BME280;35715;51.570;6.036;2023-02-11T04:04:58;103228.34;;;7.39;86.66
49827;BME280;35715;51.570;6.036;2023-02-11T04:07:27;103226.50;;;7.45;86.02
49827;BME280;35715;51.570;6.036;2023-02-11T04:09:52;103214.38;;;7.44;86.22
49827;BME280;35715;51.570;6.036;2023-02-11T04:12:18;103211.81;;;7.44;86.04
49827;BME280;35715;51.570;6.036;2023-02-11T04:14:43;103214.00;;;7.41;85.99
49827;BME280;35715;51.570;6.036;2023-02-11T04:17:16;103196.75;;;7.33;86.91
49827;BME280;35715;51.570;6.036;2023-02-11T04:19:42;103204.09;;;7.29;86.27
49827;BME280;35715;51.570;6.036;2023-02-11T04:22:07;103208.50;;;7.31;86.12
49827;BME280;35715;51.570;6.036;2023-02-11T04:24:32;103222.44;;;7.33;85.86
49827;BME280;35715;51.570;6.036;2023-02-11T04:27:08;103224.66;;;7.29;86.73
49827;BME280;35715;51.570;6.036;2023-02-11T04:29:33;103225.19;;;7.34;86.54
49827;BME280;35715;51.570;6.036;2023-02-11T04:31:59;103227.75;;;7.34;86.25
49827;BME280;35715;51.570;6.036;2023-02-11T04:34:24;103225.56;;;7.37;86.00
49827;BME280;35715;51.570;6.036;2023-02-11T04:39:19;103232.72;;;7.40;85.86
49827;BME280;35715;51.570;6.036;2023-02-11T04:41:45;103240.59;;;7.41;85.98
49827;BME280;35715;51.570;6.036;2023-02-11T04:44:10;103246.28;;;7.46;85.63
49827;BME280;35715;51.570;6.036;2023-02-11T04:46:35;103248.31;;;7.49;85.75
49827;BME280;35715;51.570;6.036;2023-02-11T04:49:01;103238.41;;;7.52;85.48
49827;BME280;35715;51.570;6.036;2023-02-11T04:51:26;103228.31;;;7.53;85.32
49827;BME280;35715;51.570;6.036;2023-02-11T04:53:51;103234.94;;;7.51;85.41
49827;BME280;35715;51.570;6.036;2023-02-11T04:56:18;103239.31;;;7.52;85.59
49827;BME280;35715;51.570;6.036;2023-02-11T04:58:44;103243.34;;;7.57;84.96
49827;BME280;35715;51.570;6.036;2023-02-11T05:01:10;103236.91;;;7.54;85.44
49827;BME280;35715;51.570;6.036;2023-02-11T05:03:36;103235.28;;;7.54;85.47
49827;BME280;35715;51.570;6.036;2023-02-11T05:06:02;103233.25;;;7.52;85.95
49827;BME280;35715;51.570;6.036;2023-02-11T05:08:27;103240.44;;;7.54;85.82
49827;BME280;35715;51.570;6.036;2023-02-11T05:10:53;103240.25;;;7.53;85.92
49827;BME280;35715;51.570;6.036;2023-02-11T05:13:18;103239.31;;;7.52;86.27
49827;BME280;35715;51.570;6.036;2023-02-11T05:15:44;103233.25;;;7.59;85.15
49827;BME280;35715;51.570;6.036;2023-02-11T05:18:10;103229.78;;;7.51;86.38
49827;BME280;35715;51.570;6.036;2023-02-11T05:20:38;103229.78;;;7.51;86.09
49827;BME280;35715;51.570;6.036;2023-02-11T05:23:03;103218.22;;;7.55;85.89
49827;BME280;35715;51.570;6.036;2023-02-11T05:25:28;103226.09;;;7.56;85.68
49827;BME280;35715;51.570;6.036;2023-02-11T05:27:54;103219.47;;;7.58;85.54
49827;BME280;35715;51.570;6.036;2023-02-11T05:30:19;103218.22;;;7.55;85.79
49827;BME280;35715;51.570;6.036;2023-02-11T05:32:44;103211.94;;;7.60;85.54
49827;BME280;35715;51.570;6.036;2023-02-11T05:35:10;103206.44;;;7.57;86.02
49827;BME280;35715;51.570;6.036;2023-02-11T05:37:43;103206.09;;;7.54;86.40
49827;BME280;35715;51.570;6.036;2023-02-11T05:40:08;103214.91;;;7.56;86.16
49827;BME280;35715;51.570;6.036;2023-02-11T05:42:34;103211.78;;;7.58;85.88
49827;BME280;35715;51.570;6.036;2023-02-11T05:44:59;103222.97;;;7.59;86.14
49827;BME280;35715;51.570;6.036;2023-02-11T05:47:41;103227.94;;;7.57;86.32
49827;BME280;35715;51.570;6.036;2023-02-11T05:50:07;103221.13;;;7.58;85.99
49827;BME280;35715;51.570;6.036;2023-02-11T05:52:32;103223.16;;;7.60;85.92
49827;BME280;35715;51.570;6.036;2023-02-11T05:54:58;103231.97;;;7.55;86.58
49827;BME280;35715;51.570;6.036;2023-02-11T05:57:23;103223.16;;;7.53;86.54
49827;BME280;35715;51.570;6.036;2023-02-11T05:59:48;103230.88;;;7.53;86.71
49827;BME280;35715;51.570;6.036;2023-02-11T06:02:13;103230.16;;;7.54;86.59
49827;BME280;35715;51.570;6.036;2023-02-11T06:04:39;103223.72;;;7.51;87.29
49827;BME280;35715;51.570;6.036;2023-02-11T06:07:04;103222.63;;;7.56;86.77
49827;BME280;35715;51.570;6.036;2023-02-11T06:09:29;103223.53;;;7.56;86.61
49827;BME280;35715;51.570;6.036;2023-02-11T06:11:54;103212.00;;;7.53;86.95
49827;BME280;35715;51.570;6.036;2023-02-11T06:14:20;103215.81;;;7.56;86.76
49827;BME280;35715;51.570;6.036;2023-02-11T06:16:46;103221.31;;;7.59;86.34
49827;BME280;35715;51.570;6.036;2023-02-11T06:19:12;103221.31;;;7.59;86.27
49827;BME280;35715;51.570;6.036;2023-02-11T06:21:37;103230.28;;;7.63;86.01
49827;BME280;35715;51.570;6.036;2023-02-11T06:24:03;103223.16;;;7.60;86.51
49827;BME280;35715;51.570;6.036;2023-02-11T06:26:30;103229.75;;;7.58;86.69
49827;BME280;35715;51.570;6.036;2023-02-11T06:28:55;103230.88;;;7.60;86.82
49827;BME280;35715;51.570;6.036;2023-02-11T06:31:20;103230.28;;;7.63;86.24
49827;BME280;35715;51.570;6.036;2023-02-11T06:33:45;103233.81;;;7.63;86.45
49827;BME280;35715;51.570;6.036;2023-02-11T06:36:25;103231.97;;;7.62;86.35
49827;BME280;35715;51.570;6.036;2023-02-11T06:38:51;103238.41;;;7.66;86.18
49827;BME280;35715;51.570;6.036;2023-02-11T06:41:17;103243.72;;;7.68;86.24
49827;BME280;35715;51.570;6.036;2023-02-11T06:43:44;103241.88;;;7.67;86.82
49827;BME280;35715;51.570;6.036;2023-02-11T06:46:11;103248.09;;;7.69;86.31
49827;BME280;35715;51.570;6.036;2023-02-11T06:48:36;103237.09;;;7.70;86.44
49827;BME280;35715;51.570;6.036;2023-02-11T06:51:02;103256.34;;;7.73;86.29
49827;BME280;35715;51.570;6.036;2023-02-11T06:53:28;103256.38;;;7.66;87.20
49827;BME280;35715;51.570;6.036;2023-02-11T06:56:04;103242.78;;;7.67;86.84
49827;BME280;35715;51.570;6.036;2023-02-11T06:58:29;103242.06;;;7.68;86.87
49827;BME280;35715;51.570;6.036;2023-02-11T07:00:54;103238.94;;;7.71;86.54
49827;BME280;35715;51.570;6.036;2023-02-11T07:03:20;103247.00;;;7.74;86.27
49827;BME280;35715;51.570;6.036;2023-02-11T07:05:45;103257.66;;;7.70;86.92
49827;BME280;35715;51.570;6.036;2023-02-11T07:08:11;103249.75;;;7.68;87.20
49827;BME280;35715;51.570;6.036;2023-02-11T07:10:36;103249.94;;;7.70;87.15
49827;BME280;35715;51.570;6.036;2023-02-11T07:13:01;103251.03;;;7.72;86.68
49827;BME280;35715;51.570;6.036;2023-02-11T07:15:27;103252.50;;;7.70;87.27
49827;BME280;35715;51.570;6.036;2023-02-11T07:17:52;103251.59;;;7.69;87.32
49827;BME280;35715;51.570;6.036;2023-02-11T07:20:17;103256.16;;;7.72;87.06
49827;BME280;35715;51.570;6.036;2023-02-11T07:22:42;103251.56;;;7.76;86.64
49827;BME280;35715;51.570;6.036;2023-02-11T07:25:07;103258.19;;;7.74;87.06
49827;BME280;35715;51.570;6.036;2023-02-11T07:27:38;103265.72;;;7.73;87.78
49827;BME280;35715;51.570;6.036;2023-02-11T07:30:03;103265.34;;;7.70;87.83
49827;BME280;35715;51.570;6.036;2023-02-11T07:32:29;103265.91;;;7.67;88.30
49827;BME280;35715;51.570;6.036;2023-02-11T07:34:54;103271.75;;;7.73;87.68
49827;BME280;35715;51.570;6.036;2023-02-11T07:39:48;103276.91;;;7.73;88.32
49827;BME280;35715;51.570;6.036;2023-02-11T07:42:13;103275.63;;;7.77;87.81
49827;BME280;35715;51.570;6.036;2023-02-11T07:44:38;103284.78;;;7.82;87.33
49827;BME280;35715;51.570;6.036;2023-02-11T07:47:05;103287.38;;;7.82;87.81
49827;BME280;35715;51.570;6.036;2023-02-11T07:49:31;103286.63;;;7.83;87.60
49827;BME280;35715;51.570;6.036;2023-02-11T07:51:56;103282.22;;;7.82;87.73
49827;BME280;35715;51.570;6.036;2023-02-11T07:54:21;103287.00;;;7.86;87.48
49827;BME280;35715;51.570;6.036;2023-02-11T07:56:58;103282.03;;;7.80;88.70
49827;BME280;35715;51.570;6.036;2023-02-11T07:59:23;103279.09;;;7.85;88.30
49827;BME280;35715;51.570;6.036;2023-02-11T08:01:49;103280.00;;;7.85;88.31
49827;BME280;35715;51.570;6.036;2023-02-11T08:04:15;103290.66;;;7.88;88.16
49827;BME280;35715;51.570;6.036;2023-02-11T08:06:42;103294.34;;;7.90;88.06
49827;BME280;35715;51.570;6.036;2023-02-11T08:09:08;103288.44;;;7.91;88.29
49827;BME280;35715;51.570;6.036;2023-02-11T08:11:33;103294.13;;;7.89;88.82
49827;BME280;35715;51.570;6.036;2023-02-11T08:13:59;103292.50;;;7.82;89.91
49827;BME280;35715;51.570;6.036;2023-02-11T08:16:37;103294.88;;;7.88;89.26
49827;BME280;35715;51.570;6.036;2023-02-11T08:19:04;103295.44;;;7.85;89.72
49827;BME280;35715;51.570;6.036;2023-02-11T08:21:29;103300.94;;;7.88;89.78
49827;BME280;35715;51.570;6.036;2023-02-11T08:23:55;103302.41;;;7.86;90.19
49827;BME280;35715;51.570;6.036;2023-02-11T08:26:28;103293.94;;;7.94;89.23
49827;BME280;35715;51.570;6.036;2023-02-11T08:28:54;103303.31;;;7.94;89.58
49827;BME280;35715;51.570;6.036;2023-02-11T08:31:20;103291.38;;;7.94;89.61
49827;BME280;35715;51.570;6.036;2023-02-11T08:33:46;103309.00;;;7.98;89.39
49827;BME280;35715;51.570;6.036;2023-02-11T08:36:23;103306.06;;;7.95;89.87
49827;BME280;35715;51.570;6.036;2023-02-11T08:38:48;103310.66;;;7.98;90.05
49827;BME280;35715;51.570;6.036;2023-02-11T08:41:14;103314.88;;;7.97;90.50
49827;BME280;35715;51.570;6.036;2023-02-11T08:43:40;103305.69;;;7.99;90.37
49827;BME280;35715;51.570;6.036;2023-02-11T08:46:09;103304.56;;;8.05;90.02
49827;BME280;35715;51.570;6.036;2023-02-11T08:48:35;103310.06;;;8.08;89.94
49827;BME280;35715;51.570;6.036;2023-02-11T08:51:04;103307.50;;;8.08;90.32
49827;BME280;35715;51.570;6.036;2023-02-11T08:53:30;103312.28;;;8.12;90.05
49827;BME280;35715;51.570;6.036;2023-02-11T08:58:25;103304.94;;;8.08;90.70
49827;BME280;35715;51.570;6.036;2023-02-11T09:00:51;103307.31;;;8.06;91.25
49827;BME280;35715;51.570;6.036;2023-02-11T09:03:16;103308.22;;;8.07;91.58
49827;BME280;35715;51.570;6.036;2023-02-11T09:05:45;103305.13;;;8.09;91.37
49827;BME280;35715;51.570;6.036;2023-02-11T09:08:11;103306.78;;;8.09;91.86
49827;BME280;35715;51.570;6.036;2023-02-11T09:10:36;103311.53;;;8.13;91.07
49827;BME280;35715;51.570;6.036;2023-02-11T09:13:02;103311.88;;;8.16;91.13
49827;BME280;35715;51.570;6.036;2023-02-11T09:15:27;103317.97;;;8.16;91.58
49827;BME280;35715;51.570;6.036;2023-02-11T09:17:52;103317.03;;;8.16;91.69
49827;BME280;35715;51.570;6.036;2023-02-11T09:20:18;103326.94;;;8.20;91.61
49827;BME280;35715;51.570;6.036;2023-02-11T09:22:43;103327.53;;;8.17;91.96
49827;BME280;35715;51.570;6.036;2023-02-11T09:25:08;103340.75;;;8.21;91.61
49827;BME280;35715;51.570;6.036;2023-02-11T09:27:45;103334.66;;;8.20;91.89
49827;BME280;35715;51.570;6.036;2023-02-11T09:30:10;103342.75;;;8.16;92.57
49827;BME280;35715;51.570;6.036;2023-02-11T09:32:36;103344.41;;;8.23;92.16
49827;BME280;35715;51.570;6.036;2023-02-11T09:35:01;103335.97;;;8.24;92.22
49827;BME280;35715;51.570;6.036;2023-02-11T09:37:34;103339.06;;;8.21;92.39
49827;BME280;35715;51.570;6.036;2023-02-11T09:39:59;103344.03;;;8.27;92.20
49827;BME280;35715;51.570;6.036;2023-02-11T09:45:19;103348.78;;;8.31;92.29
49827;BME280;35715;51.570;6.036;2023-02-11T09:48:31;103354.84;;;8.31;92.43
49827;BME280;35715;51.570;6.036;2023-02-11T09:50:38;103353.00;;;8.30;92.95
49827;BME280;35715;51.570;6.036;2023-02-11T09:53:05;103353.91;;;8.31;92.93
49827;BME280;35715;51.570;6.036;2023-02-11T09:55:38;103358.88;;;8.37;92.83
49827;BME280;35715;51.570;6.036;2023-02-11T09:58:13;103364.19;;;8.38;92.79
49827;BME280;35715;51.570;6.036;2023-02-11T10:00:51;103365.66;;;8.43;92.32
49827;BME280;35715;51.570;6.036;2023-02-11T10:08:54;103379.06;;;8.55;91.95
49827;BME280;35715;51.570;6.036;2023-02-11T10:11:47;103376.84;;;8.58;92.00
49827;BME280;35715;51.570;6.036;2023-02-11T10:24:15;103389.69;;;8.65;92.01
49827;BME280;35715;51.570;6.036;2023-02-11T10:26:42;103392.63;;;8.68;92.15
49827;BME280;35715;51.570;6.036;2023-02-11T10:29:14;103404.75;;;8.77;91.64
49827;BME280;35715;51.570;6.036;2023-02-11T10:31:44;103405.63;;;8.84;91.21
49827;BME280;35715;51.570;6.036;2023-02-11T10:34:11;103398.63;;;8.91;90.99
49827;BME280;35715;51.570;6.036;2023-02-11T10:36:42;103403.00;;;8.92;91.14
49827;BME280;35715;51.570;6.036;2023-02-11T10:39:21;103400.25;;;8.90;91.25
49827;BME280;35715;51.570;6.036;2023-02-11T10:42:01;103396.59;;;8.88;91.35
49827;BME280;35715;51.570;6.036;2023-02-11T10:46:55;103401.72;;;8.95;91.19
49827;BME280;35715;51.570;6.036;2023-02-11T10:49:32;103408.13;;;8.99;90.86
49827;BME280;35715;51.570;6.036;2023-02-11T10:54:41;103409.41;;;9.02;90.97
49827;BME280;35715;51.570;6.036;2023-02-11T10:57:20;103407.38;;;9.07;90.64
49827;BME280;35715;51.570;6.036;2023-02-11T10:59:45;103415.63;;;9.12;90.38
49827;BME280;35715;51.570;6.036;2023-02-11T11:02:26;103403.47;;;9.11;90.31
49827;BME280;35715;51.570;6.036;2023-02-11T11:04:56;103411.19;;;9.11;90.63
49827;BME280;35715;51.570;6.036;2023-02-11T11:17:36;103419.25;;;9.21;89.74
49827;BME280;35715;51.570;6.036;2023-02-11T11:23:18;103410.41;;;9.19;89.93
49827;BME280;35715;51.570;6.036;2023-02-11T11:28:33;103406.34;;;9.28;89.64
49827;BME280;35715;51.570;6.036;2023-02-11T11:31:00;103411.84;;;9.31;89.49
49827;BME280;35715;51.570;6.036;2023-02-11T11:33:27;103414.25;;;9.30;89.59
49827;BME280;35715;51.570;6.036;2023-02-11T11:36:37;103410.00;;;9.30;89.74
49827;BME280;35715;51.570;6.036;2023-02-11T11:38:48;103412.56;;;9.30;89.99
49827;BME280;35715;51.570;6.036;2023-02-11T11:41:25;103420.44;;;9.39;89.38
49827;BME280;35715;51.570;6.036;2023-02-11T11:43:58;103420.63;;;9.40;89.55
49827;BME280;35715;51.570;6.036;2023-02-11T11:46:38;103413.38;;;9.52;89.27
49827;BME280;35715;51.570;6.036;2023-02-11T11:49:06;103413.19;;;9.51;89.48
49827;BME280;35715;51.570;6.036;2023-02-11T11:51:36;103405.00;;;9.62;89.05
49827;BME280;35715;51.570;6.036;2023-02-11T11:54:05;103394.13;;;9.65;89.01
49827;BME280;35715;51.570;6.036;2023-02-11T11:56:35;103394.63;;;9.69;88.76
49827;BME280;35715;51.570;6.036;2023-02-11T11:59:09;103395.72;;;9.71;88.82
49827;BME280;35715;51.570;6.036;2023-02-11T12:04:44;103395.09;;;9.81;88.13
49827;BME280;35715;51.570;6.036;2023-02-11T12:07:34;103400.59;;;9.84;87.68
49827;BME280;35715;51.570;6.036;2023-02-11T12:18:29;103395.31;;;9.75;88.44
49827;BME280;35715;51.570;6.036;2023-02-11T12:21:09;103392.09;;;9.85;88.55
49827;BME280;35715;51.570;6.036;2023-02-11T12:23:47;103391.66;;;10.12;87.87
49827;BME280;35715;51.570;6.036;2023-02-11T12:26:19;103383.25;;;10.45;87.00
49827;BME280;35715;51.570;6.036;2023-02-11T12:34:20;103383.00;;;10.35;85.55
49827;BME280;35715;51.570;6.036;2023-02-11T12:50:07;103372.91;;;10.93;82.73
49827;BME280;35715;51.570;6.036;2023-02-11T12:55:28;103374.75;;;11.44;81.81
49827;BME280;35715;51.570;6.036;2023-02-11T12:58:01;103377.50;;;11.45;80.03
49827;BME280;35715;51.570;6.036;2023-02-11T13:00:49;103370.34;;;11.67;79.82
49827;BME280;35715;51.570;6.036;2023-02-11T13:03:13;103366.97;;;11.93;79.08
49827;BME280;35715;51.570;6.036;2023-02-11T13:05:43;103368.06;;;12.04;78.44
49827;BME280;35715;51.570;6.036;2023-02-11T13:10:39;103361.09;;;12.29;76.27
49827;BME280;35715;51.570;6.036;2023-02-11T13:13:18;103353.41;;;12.55;75.87
49827;BME280;35715;51.570;6.036;2023-02-11T13:16:46;103353.56;;;12.66;76.18
49827;BME280;35715;51.570;6.036;2023-02-11T13:18:48;103353.38;;;12.64;75.87
49827;BME280;35715;51.570;6.036;2023-02-11T13:23:59;103350.47;;;12.35;73.84
49827;BME280;35715;51.570;6.036;2023-02-11T13:31:54;103351.47;;;12.11;73.97
49827;BME280;35715;51.570;6.036;2023-02-11T13:34:22;103353.09;;;11.93;75.03
49827;BME280;35715;51.570;6.036;2023-02-11T13:36:52;103354.75;;;11.92;75.17
49827;BME280;35715;51.570;6.036;2023-02-11T13:39:21;103354.81;;;12.01;74.83
49827;BME280;35715;51.570;6.036;2023-02-11T13:41:47;103358.59;;;11.96;74.10
49827;BME280;35715;51.570;6.036;2023-02-11T13:49:36;103360.00;;;12.01;74.91
49827;BME280;35715;51.570;6.036;2023-02-11T13:52:05;103368.94;;;11.96;74.98
49827;BME280;35715;51.570;6.036;2023-02-11T13:54:34;103370.13;;;11.90;75.46
49827;BME280;35715;51.570;6.036;2023-02-11T13:59:48;103369.06;;;11.88;75.43
49827;BME280;35715;51.570;6.036;2023-02-11T14:10:48;103361.97;;;11.70;75.90
49827;BME280;35715;51.570;6.036;2023-02-11T14:13:21;103364.06;;;11.65;76.28
49827;BME280;35715;51.570;6.036;2023-02-11T14:23:44;103369.84;;;11.63;76.82
49827;BME280;35715;51.570;6.036;2023-02-11T14:28:42;103356.63;;;11.60;76.72
49827;BME280;35715;51.570;6.036;2023-02-11T14:31:13;103363.59;;;11.61;76.82
49827;BME280;35715;51.570;6.036;2023-02-11T14:38:43;103377.34;;;11.44;76.89
49827;BME280;35715;51.570;6.036;2023-02-11T14:41:22;103379.78;;;11.42;77.26
49827;BME280;35715;51.570;6.036;2023-02-11T14:43:50;103377.19;;;11.42;77.44
49827;BME280;35715;51.570;6.036;2023-02-11T14:46:19;103382.19;;;11.41;77.49
49827;BME280;35715;51.570;6.036;2023-02-11T14:48:45;103374.19;;;11.46;77.82
49827;BME280;35715;51.570;6.036;2023-02-11T14:51:12;103371.75;;;11.48;77.68
49827;BME280;35715;51.570;6.036;2023-02-11T14:53:42;103372.03;;;11.42;77.97
49827;BME280;35715;51.570;6.036;2023-02-11T14:56:22;103370.78;;;11.39;78.05
49827;BME280;35715;51.570;6.036;2023-02-11T14:58:50;103374.88;;;11.36;78.15
49827;BME280;35715;51.570;6.036;2023-02-11T15:01:24;103386.47;;;11.40;78.27
49827;BME280;35715;51.570;6.036;2023-02-11T15:03:51;103388.56;;;11.35;78.63
49827;BME280;35715;51.570;6.036;2023-02-11T15:06:22;103392.06;;;11.36;78.77
49827;BME280;35715;51.570;6.036;2023-02-11T15:11:31;103387.16;;;11.30;78.90
49827;BME280;35715;51.570;6.036;2023-02-11T15:14:00;103398.06;;;11.28;79.06
49827;BME280;35715;51.570;6.036;2023-02-11T15:16:30;103400.81;;;11.29;79.23
49827;BME280;35715;51.570;6.036;2023-02-11T15:18:58;103405.31;;;11.23;79.16
49827;BME280;35715;51.570;6.036;2023-02-11T15:21:26;103405.25;;;11.30;79.03
49827;BME280;35715;51.570;6.036;2023-02-11T15:24:01;103408.88;;;11.32;78.80
49827;BME280;35715;51.570;6.036;2023-02-11T15:29:15;103405.50;;;11.25;79.11
49827;BME280;35715;51.570;6.036;2023-02-11T15:31:41;103409.44;;;11.21;79.31
49827;BME280;35715;51.570;6.036;2023-02-11T15:34:07;103409.84;;;11.17;79.29
49827;BME280;35715;51.570;6.036;2023-02-11T15:36:32;103406.94;;;11.14;79.61
49827;BME280;35715;51.570;6.036;2023-02-11T15:39:28;103404.97;;;11.11;79.91
49827;BME280;35715;51.570;6.036;2023-02-11T15:41:54;103398.94;;;11.04;80.04
49827;BME280;35715;51.570;6.036;2023-02-11T15:44:30;103403.38;;;11.05;80.29
49827;BME280;35715;51.570;6.036;2023-02-11T15:47:02;103408.72;;;11.06;80.18
49827;BME280;35715;51.570;6.036;2023-02-11T15:49:33;103404.91;;;11.03;80.30
49827;BME280;35715;51.570;6.036;2023-02-11T15:51:58;103405.16;;;10.97;80.30
49827;BME280;35715;51.570;6.036;2023-02-11T15:54:25;103410.88;;;10.94;80.53
49827;BME280;35715;51.570;6.036;2023-02-11T15:56:52;103410.88;;;10.94;80.47
49827;BME280;35715;51.570;6.036;2023-02-11T15:59:32;103408.13;;;10.93;80.43
49827;BME280;35715;51.570;6.036;2023-02-11T16:02:35;103411.50;;;10.92;80.56
49827;BME280;35715;51.570;6.036;2023-02-11T16:04:54;103409.50;;;10.89;80.72